createdAt,value
2022-10-13T00:01:48.272Z,40.30
2022-10-13T00:04:51.251Z,40.83
2022-10-13T00:07:56.604Z,41.73
2022-10-13T00:11:00.546Z,40.07
2022-10-13T00:14:04.795Z,41.50
2022-10-13T00:17:14.496Z,39.63
2022-10-13T00:20:17.786Z,42.08
2022-10-13T00:23:20.770Z,39.17
2022-10-13T00:26:25.400Z,43.37
2022-10-13T00:29:28.276Z,39.80
2022-10-13T00:32:31.275Z,39.28
2022-10-13T00:35:34.945Z,39.08
2022-10-13T00:38:37.478Z,35.80
2022-10-13T00:41:40.566Z,37.60
2022-10-13T00:45:02.310Z,38.92
2022-10-13T00:48:05.905Z,36.47
2022-10-13T00:51:11.220Z,36.88
2022-10-13T00:54:20.333Z,37.67
2022-10-13T00:57:23.512Z,35.63
2022-10-13T01:00:27.338Z,36.90
2022-10-13T01:03:30.878Z,37.50
2022-10-13T01:06:34.807Z,37.38
2022-10-13T01:09:38.035Z,38.00
2022-10-13T01:12:58.685Z,36.90
2022-10-13T01:16:21.316Z,36.45
2022-10-13T01:19:39.029Z,34.88
2022-10-13T01:23:06.803Z,34.38
2022-10-13T01:26:31.446Z,36.43
2022-10-13T01:30:06.396Z,37.37
2022-10-13T01:33:45.180Z,39.00
2022-10-13T01:37:19.299Z,37.30
2022-10-13T01:41:00.489Z,35.53
2022-10-13T01:44:25.282Z,40.50
2022-10-13T01:47:33.632Z,32.73
2022-10-13T01:50:38.287Z,36.17
2022-10-13T01:53:42.593Z,33.30
2022-10-13T01:56:55.613Z,40.10
2022-10-13T02:00:04.790Z,33.20
2022-10-13T02:03:27.091Z,33.90
2022-10-13T02:06:40.041Z,31.87
2022-10-13T02:09:58.358Z,33.53
2022-10-13T02:13:06.725Z,31.12
2022-10-13T02:16:11.077Z,30.00
2022-10-13T02:19:17.309Z,28.43
2022-10-13T02:22:23.389Z,32.97
2022-10-13T02:25:30.444Z,32.40
2022-10-13T02:28:34.442Z,29.87
2022-10-13T02:31:38.753Z,34.03
2022-10-13T02:34:41.428Z,32.10
2022-10-13T02:37:44.329Z,31.98
2022-10-13T02:40:48.302Z,32.58
2022-10-13T02:43:51.383Z,29.40
2022-10-13T02:46:54.179Z,30.23
2022-10-13T02:49:58.235Z,28.37
2022-10-13T02:53:03.128Z,29.77
2022-10-13T02:56:07.796Z,29.60
2022-10-13T02:59:13.214Z,33.78
2022-10-13T03:02:16.729Z,31.57
2022-10-13T03:05:21.244Z,31.73
2022-10-13T03:08:24.904Z,30.70
2022-10-13T03:11:31.184Z,29.95
2022-10-13T03:14:34.349Z,30.35
2022-10-13T03:17:37.220Z,31.17
2022-10-13T03:20:41.142Z,31.30
2022-10-13T03:23:46.258Z,28.33
2022-10-13T03:26:51.157Z,32.28
2022-10-13T03:29:55.815Z,27.42
2022-10-13T03:32:59.849Z,28.67
2022-10-13T03:36:06.348Z,28.17
2022-10-13T03:39:12.869Z,29.37
2022-10-13T03:42:18.327Z,29.02
2022-10-13T03:45:23.137Z,26.87
2022-10-13T03:48:27.812Z,29.37
2022-10-13T03:51:31.516Z,28.57
2022-10-13T03:54:35.132Z,29.15
2022-10-13T03:57:39.031Z,27.08
2022-10-13T04:00:43.258Z,30.02
2022-10-13T04:03:49.338Z,26.23
2022-10-13T04:06:52.308Z,27.23
2022-10-13T04:09:57.693Z,29.52
2022-10-13T04:13:02.227Z,30.45
2022-10-13T04:16:17.926Z,33.42
2022-10-13T04:19:31.451Z,35.47
2022-10-13T04:22:39.922Z,32.23
2022-10-13T04:25:43.724Z,32.10
2022-10-13T04:28:49.457Z,28.35
2022-10-13T04:31:55.631Z,30.10
2022-10-13T04:34:59.260Z,31.10
2022-10-13T04:38:03.123Z,32.13
2022-10-13T04:41:08.307Z,29.80
2022-10-13T04:44:12.619Z,30.08
2022-10-13T04:47:16.012Z,30.70
2022-10-13T04:50:20.694Z,37.83
2022-10-13T04:53:34.222Z,32.93
2022-10-13T04:56:37.790Z,31.62
2022-10-13T04:59:42.208Z,38.88
2022-10-13T05:02:46.306Z,37.42
2022-10-13T05:05:51.373Z,36.20
2022-10-13T05:08:59.194Z,38.03
2022-10-13T05:12:05.591Z,38.40
2022-10-13T05:15:09.084Z,34.65
2022-10-13T05:18:14.767Z,32.25
2022-10-13T05:21:22.424Z,36.00
2022-10-13T05:24:37.104Z,36.87
2022-10-13T05:27:45.306Z,38.67
2022-10-13T05:30:48.820Z,78.07
2022-10-13T05:33:52.785Z,60.40
2022-10-13T05:37:04.328Z,57.10
2022-10-13T05:40:30.498Z,54.67
2022-10-13T05:43:34.869Z,48.03
2022-10-13T05:46:37.659Z,50.55
2022-10-13T05:49:41.151Z,52.88
2022-10-13T05:52:44.897Z,51.47
2022-10-13T05:55:48.488Z,49.03
2022-10-13T05:58:57.982Z,58.90
2022-10-13T06:02:03.709Z,54.78
2022-10-13T06:05:11.596Z,56.20
2022-10-13T06:08:23.467Z,50.27
2022-10-13T06:11:27.915Z,45.33
2022-10-13T06:14:31.961Z,40.47
2022-10-13T06:17:38.425Z,53.87
2022-10-13T06:21:08.833Z,59.92
2022-10-13T06:24:22.585Z,55.83
2022-10-13T06:27:25.724Z,51.57
2022-10-13T06:30:31.319Z,54.42
2022-10-13T06:33:38.569Z,44.33
2022-10-13T06:37:04.130Z,41.20
2022-10-13T06:40:12.332Z,34.90
2022-10-13T06:43:16.868Z,32.27
2022-10-13T06:46:21.806Z,29.27
2022-10-13T06:54:19.513Z,25.83
2022-10-13T06:57:57.120Z,24.37
2022-10-13T07:01:00.564Z,22.00
2022-10-13T07:04:07.058Z,25.60
2022-10-13T07:07:10.383Z,25.12
2022-10-13T07:15:24.169Z,27.03
2022-10-13T07:18:29.657Z,23.23
2022-10-13T07:21:32.962Z,22.58
2022-10-13T07:24:40.907Z,21.20
2022-10-13T07:27:45.309Z,22.95
2022-10-13T07:30:48.391Z,18.10
2022-10-13T07:34:20.401Z,18.93
2022-10-13T07:41:26.141Z,18.17
2022-10-13T07:44:35.375Z,17.02
2022-10-13T07:47:40.406Z,16.03
2022-10-13T07:50:43.775Z,20.83
2022-10-13T07:53:49.574Z,13.75
2022-10-13T07:56:53.623Z,15.82
2022-10-13T07:59:57.661Z,19.27
2022-10-13T08:03:04.382Z,17.13
2022-10-13T08:06:09.324Z,17.33
2022-10-13T08:09:13.679Z,16.33
2022-10-13T08:12:21.724Z,16.73
2022-10-13T08:15:26.153Z,17.95
2022-10-13T08:18:30.566Z,15.93
2022-10-13T08:21:57.091Z,15.77
2022-10-13T08:25:03.359Z,15.90
2022-10-13T08:28:18.681Z,18.15
2022-10-13T08:31:24.991Z,19.37
2022-10-13T08:34:30.179Z,15.10
2022-10-13T08:37:35.065Z,14.40
2022-10-13T08:40:40.137Z,17.67
2022-10-13T08:44:47.638Z,16.80
2022-10-13T08:47:49.608Z,16.45
2022-10-13T08:50:59.983Z,15.03
2022-10-13T08:54:06.042Z,15.07
2022-10-13T08:57:25.695Z,16.00
2022-10-13T09:00:44.597Z,16.08
2022-10-13T09:04:33.132Z,17.75
2022-10-13T09:07:41.299Z,13.97
2022-10-13T09:14:42.440Z,18.55
2022-10-13T09:18:29.186Z,12.57
2022-10-13T09:22:27.664Z,13.10
2022-10-13T09:25:45.249Z,12.10
2022-10-13T09:28:50.407Z,12.33
2022-10-13T09:32:14.111Z,14.40
2022-10-13T09:35:26.739Z,13.00
2022-10-13T09:51:45.457Z,11.60
2022-10-13T09:55:37.134Z,10.32
2022-10-13T09:59:00.890Z,11.75
2022-10-13T10:02:55.459Z,10.60
2022-10-13T10:10:30.633Z,13.05
2022-10-13T10:13:44.116Z,12.63
2022-10-13T10:17:22.053Z,13.55
2022-10-13T10:25:16.190Z,11.30
2022-10-13T10:28:42.451Z,15.15
2022-10-13T10:32:55.833Z,11.63
2022-10-13T10:36:19.421Z,19.30
2022-10-13T10:40:07.538Z,15.10
2022-10-13T10:44:03.660Z,13.80
2022-10-13T10:55:36.393Z,13.20
2022-10-13T11:03:50.334Z,13.77
2022-10-13T11:07:13.573Z,12.50
2022-10-13T11:10:44.655Z,14.48
2022-10-13T11:22:24.403Z,15.13
2022-10-13T11:25:45.169Z,14.57
2022-10-13T11:29:00.318Z,14.73
2022-10-13T13:13:10.906Z,18.03
2022-10-13T13:38:56.383Z,15.30
2022-10-13T13:42:27.393Z,17.42
2022-10-13T13:45:41.645Z,15.35
2022-10-13T13:49:19.491Z,15.73
2022-10-13T14:05:04.416Z,15.85
2022-10-13T14:17:07.257Z,15.00
2022-10-13T14:45:19.266Z,15.95
2022-10-13T14:52:35.390Z,18.57
2022-10-13T15:13:12.352Z,17.70
2022-10-13T16:22:54.444Z,25.55
2022-10-13T16:26:15.563Z,32.10
2022-10-13T16:29:31.247Z,63.20
2022-10-13T16:32:45.359Z,51.40
2022-10-13T16:35:49.288Z,45.45
2022-10-13T16:38:56.629Z,47.65
2022-10-13T16:50:28.839Z,30.07
2022-10-13T16:58:14.835Z,30.25
2022-10-13T17:02:58.413Z,32.22
2022-10-13T17:09:47.186Z,30.07
2022-10-13T17:13:24.485Z,37.53
2022-10-13T17:16:38.921Z,33.75
2022-10-13T17:19:54.670Z,30.05
2022-10-13T17:23:06.714Z,37.60
2022-10-13T17:26:16.751Z,39.30
2022-10-13T17:29:31.486Z,36.67
2022-10-13T17:32:49.503Z,39.42
2022-10-13T17:36:07.433Z,38.17
2022-10-13T17:39:20.428Z,36.92
2022-10-13T17:42:25.988Z,36.57
2022-10-13T17:45:37.420Z,39.65
2022-10-13T17:48:43.694Z,38.33
2022-10-13T17:51:55.472Z,40.30
2022-10-13T17:55:12.536Z,43.83
2022-10-13T17:58:22.413Z,41.23
2022-10-13T18:01:28.974Z,41.17
2022-10-13T18:04:34.440Z,48.83
2022-10-13T18:07:51.596Z,42.78
2022-10-13T18:11:09.316Z,40.80
2022-10-13T18:14:27.377Z,38.00
2022-10-13T18:17:34.442Z,35.30
2022-10-13T18:20:46.492Z,40.28
2022-10-13T18:24:02.679Z,35.03
2022-10-13T18:27:19.836Z,39.65
2022-10-13T18:30:30.459Z,41.17
2022-10-13T18:33:36.966Z,42.17
2022-10-13T18:36:56.547Z,37.08
2022-10-13T18:40:17.280Z,39.13
2022-10-13T18:43:29.272Z,42.72
2022-10-13T18:46:43.419Z,38.77
2022-10-13T18:49:50.375Z,47.08
2022-10-13T18:52:55.480Z,43.03
2022-10-13T18:56:16.701Z,49.35
2022-10-13T18:59:27.053Z,43.83
2022-10-13T19:02:40.602Z,41.90
2022-10-13T19:05:44.543Z,45.58
2022-10-13T19:09:10.301Z,43.53
2022-10-13T19:12:17.509Z,44.13
2022-10-13T19:15:31.504Z,51.95
2022-10-13T19:18:45.593Z,44.27
2022-10-13T19:21:49.889Z,49.70
2022-10-13T19:24:55.551Z,51.60
2022-10-13T19:28:09.500Z,48.20
2022-10-13T19:31:26.174Z,50.95
2022-10-13T19:34:36.765Z,52.13
2022-10-13T19:37:41.490Z,47.28
2022-10-13T19:40:54.392Z,48.47
2022-10-13T19:43:59.582Z,49.03
2022-10-13T19:47:12.745Z,51.20
2022-10-13T19:50:18.419Z,51.73
2022-10-13T19:53:25.543Z,51.05
2022-10-13T19:56:43.737Z,50.90
2022-10-13T19:59:50.174Z,54.42
2022-10-13T20:03:02.304Z,53.33
2022-10-13T20:06:15.919Z,56.20
2022-10-13T20:09:36.550Z,50.72
2022-10-13T20:12:49.536Z,51.97
2022-10-13T20:16:09.140Z,49.08
2022-10-13T20:19:19.570Z,53.92
2022-10-13T20:22:25.049Z,57.63
2022-10-13T20:25:34.397Z,61.55
2022-10-13T20:28:53.439Z,56.55
2022-10-13T20:31:59.192Z,57.78
2022-10-13T20:35:05.378Z,53.90
2022-10-13T20:38:10.699Z,47.97
2022-10-13T20:41:27.373Z,56.35
2022-10-13T20:44:37.361Z,53.22
2022-10-13T20:47:47.835Z,51.10
2022-10-13T20:50:59.835Z,50.60
2022-10-13T20:54:03.326Z,50.77
2022-10-13T20:57:12.403Z,55.80
2022-10-13T21:00:18.374Z,48.28
2022-10-13T21:03:24.786Z,49.53
2022-10-13T21:06:29.069Z,50.17
2022-10-13T21:09:37.700Z,54.57
2022-10-13T21:12:41.862Z,50.70
2022-10-13T21:15:46.485Z,50.60
2022-10-13T21:19:06.351Z,50.12
2022-10-13T21:22:09.861Z,48.63
2022-10-13T21:25:12.880Z,52.67
2022-10-13T21:28:41.810Z,47.55
2022-10-13T21:31:45.026Z,53.97
2022-10-13T21:34:50.879Z,46.47
2022-10-13T21:37:55.366Z,50.45
2022-10-13T21:41:05.610Z,48.80
2022-10-13T21:44:13.920Z,50.30
2022-10-13T21:47:16.982Z,50.00
2022-10-13T21:50:19.547Z,47.30
2022-10-13T21:53:22.539Z,47.35
2022-10-13T21:56:27.334Z,47.13
2022-10-13T21:59:31.691Z,53.28
2022-10-13T22:02:36.262Z,51.42
2022-10-13T22:05:39.153Z,50.38
2022-10-13T22:08:44.082Z,54.58
2022-10-13T22:11:56.613Z,49.07
2022-10-13T22:14:59.322Z,53.70
2022-10-13T22:18:03.487Z,54.00
2022-10-13T22:21:11.503Z,49.38
2022-10-13T22:24:19.064Z,52.28
2022-10-13T22:27:39.791Z,52.93
2022-10-13T22:30:42.872Z,48.80
2022-10-13T22:33:47.157Z,44.20
2022-10-13T22:36:51.669Z,48.53
2022-10-13T22:39:54.347Z,42.78
2022-10-13T22:42:57.402Z,41.57
2022-10-13T22:46:03.421Z,43.85
2022-10-13T22:49:13.456Z,45.33
2022-10-13T22:52:15.939Z,39.30
2022-10-13T22:55:26.845Z,40.35
2022-10-13T22:58:29.418Z,44.90
2022-10-13T23:01:32.894Z,42.75
2022-10-13T23:04:35.815Z,42.53
2022-10-13T23:07:39.660Z,44.70
2022-10-13T23:10:43.023Z,42.00
2022-10-13T23:13:46.145Z,41.63
2022-10-13T23:16:48.804Z,38.60
2022-10-13T23:19:51.852Z,39.38
2022-10-13T23:22:54.625Z,37.38
2022-10-13T23:26:05.676Z,50.53
2022-10-13T23:29:13.217Z,47.73
2022-10-13T23:32:23.340Z,39.97
2022-10-13T23:35:28.664Z,43.00
2022-10-13T23:38:32.386Z,40.45
2022-10-13T23:41:35.725Z,39.45
2022-10-13T23:44:39.160Z,41.53
2022-10-13T23:47:42.006Z,39.20
2022-10-13T23:50:45.364Z,39.88
2022-10-13T23:53:49.355Z,39.58
2022-10-13T23:56:53.363Z,38.03
2022-10-13T23:59:55.921Z,39.43
